Flight Track Log - Related Links

Times and Time Zones

All times are in EDT time to prevent confusion due to time zone crossing. See the TCF3444 flight status page for this flight to view local times or setup timezone preferences in your user account.

Time Position Orientation Groundspeed Altitude Reporting Facility
EDT Latitude Longitude Course Direction KTS MPH feet Rate Location/Type
Mon 10:34:32 PM 41.9833 -87.8667 90° East 147 169 2,600  Level Chicago TRACON
Mon 10:36:33 PM 41.9950 -87.6953 85° East 252 290 7,700 2,868 Climbing Chicago Center
Mon 10:37:00 PM 41.9420 -87.2539 95° East  Level FlightAware Approximate
Mon 10:37:34 PM 41.9867 -87.5853 96° East 286 329 11,300  Level Chicago Center
Mon 10:38:00 PM 41.9333 -87.0925 90° East  Level FlightAware Approximate
Mon 10:38:36 PM 41.9778 -87.4703 96° East 303 349 14,500  Level Chicago Center
Mon 10:39:00 PM 41.9333 -86.9306 90° East  Level FlightAware Approximate
Mon 10:39:37 PM 41.9614 -87.3181 98° East 337 388 17,000  Level Chicago Center
Mon 10:40:38 PM 41.9478 -87.1767 97° East 372 428 19,600 2,537 Climbing Chicago Center
Mon 10:41:40 PM 41.9306 -87.0306 99° East 389 448 22,200 2,098 Climbing Chicago Center
Mon 10:42:41 PM 41.9133 -86.8822 99° East 400 460 23,900 1,770 Climbing Chicago Center
Mon 10:43:42 PM 41.8717 -86.7311 110° East 421 484 25,800 1,756 Climbing Chicago Center
Mon 10:44:44 PM 41.8306 -86.5742 109° East 431 496 27,500 1,463 Climbing Chicago Center
Mon 10:45:45 PM 41.8114 -86.4078 99° East 448 516 28,800 1,574 Climbing Chicago Center
Mon 10:46:46 PM 41.7972 -86.2389 96° East 455 524 30,700 1,082 Climbing Chicago Center
Mon 10:47:47 PM 41.7828 -86.0686 96° East 459 528 31,000 146 Climbing Chicago Center
Mon 10:48:49 PM 41.7683 -85.8906 96° East 474 545 31,000  Level Chicago Center
Mon 10:49:50 PM 41.7525 -85.7114 97° East 481 554 31,000  Level Chicago Center
Mon 10:50:51 PM 41.7378 -85.5317 96° East 481 554 31,000  Level Chicago Center
Mon 10:51:52 PM 41.7197 -85.3464 97° East 479 551 31,000  Level Chicago Center
Mon 10:52:53 PM 41.7028 -85.1672 97° East 477 549 31,000  Level Chicago Center
Mon 10:53:37 PM 41.6889 -85.0078 97° East 485 558 31,000  Level Cleveland Center
Mon 10:54:37 PM 41.6725 -84.8342 97° East 485 558 31,000  Level Cleveland Center
Mon 10:55:37 PM 41.6603 -84.6553 95° East 485 558 31,000  Level Cleveland Center
Mon 10:56:37 PM 41.6456 -84.4792 96° East 480 552 31,000  Level Cleveland Center
Mon 10:57:37 PM 41.6158 -84.3108 103° East 475 547 31,000  Level Cleveland Center
Mon 10:58:37 PM 41.5817 -84.1394 105° East 470 541 31,000  Level Cleveland Center
Mon 10:59:37 PM 41.5472 -83.9656 105° East 481 554 31,000  Level Cleveland Center
Mon 11:00:37 PM 41.5147 -83.7944 104° East 481 554 31,000  Level Cleveland Center
Mon 11:01:37 PM 41.4819 -83.6211 104° East 481 554 31,000  Level Cleveland Center
Mon 11:02:37 PM 41.4489 -83.4478 104° East 481 554 31,000  Level Cleveland Center
Mon 11:03:37 PM 41.4175 -83.2775 104° East 476 548 31,000  Level Cleveland Center
Mon 11:04:37 PM 41.3878 -83.1211 104° East 481 554 31,000  Level Cleveland Center
Mon 11:05:37 PM 41.3539 -82.9539 105° East 476 548 31,000  Level Cleveland Center
Mon 11:06:37 PM 41.3197 -82.7783 104° East 462 532 31,000 -150 Level Cleveland Center
Mon 11:07:37 PM 41.2875 -82.6114 104° East 457 526 30,700 -750 Descending Cleveland Center
Mon 11:08:37 PM 41.2547 -82.4503 105° East 457 526 29,500 -1,150 Descending Cleveland Center
Mon 11:09:37 PM 41.2178 -82.2836 106° East 457 526 28,400 -1,150 Descending Cleveland Center
Mon 11:10:37 PM 41.1658 -82.1278 114° Southeast 457 526 27,200 -1,150 Descending Cleveland Center
Mon 11:11:37 PM 41.1133 -81.9750 114° Southeast 457 526 26,100 -1,100 Descending Cleveland Center
Mon 11:12:37 PM 41.0589 -81.8250 116° Southeast 447 514 25,000 -1,150 Descending Cleveland Center
Mon 11:13:37 PM 41.0083 -81.6756 114° Southeast 447 514 23,800 -1,800 Descending Cleveland Center
Mon 11:14:37 PM 40.9575 -81.5317 115° Southeast 442 509 21,400 -2,300 Descending Cleveland Center
Mon 11:15:37 PM 40.9064 -81.3881 115° Southeast 437 503 19,200 -2,050 Descending Cleveland Center
Mon 11:16:37 PM 40.8594 -81.2531 115° Southeast 424 488 17,300 -2,100 Descending Cleveland Center
Mon 11:17:37 PM 40.8122 -81.1208 115° Southeast 404 465 15,000 -2,050 Descending Cleveland Center
Mon 11:18:37 PM 40.7750 -81.0081 114° Southeast 386 444 13,200 -1,900 Descending Cleveland Center
Mon 11:19:37 PM 40.7358 -80.8872 113° Southeast 372 428 11,200 -1,600 Descending Cleveland Center
Mon 11:20:37 PM 40.7028 -80.7719 111° Southeast 347 399 10,000 -1,300 Descending Cleveland Center
Mon 11:21:37 PM 40.6697 -80.6653 112° Southeast 301 346 8,600 -1,450 Descending Cleveland Center
Mon 11:22:37 PM 40.6447 -80.5858 113° Southeast 274 315 7,100 -1,550 Descending Cleveland Center
Mon 11:23:37 PM 40.6133 -80.4983 115° Southeast 261 300 5,500 -1,300 Descending Cleveland Center
Mon 11:24:37 PM 40.5717 -80.4272 128° Southeast 253 291 4,500 -950 Descending Cleveland Center
Mon 11:25:37 PM 40.5319 -80.3783 137° Southeast 226 260 3,600 -900 Descending Cleveland Center

Login

Don't have an account? Register now (free) for customized features, flight alerts, and more!